Artesian, Iowa
Current Conditions -  °F | °C
As of 6:54 AM on Friday 28 Nov 2014 (Local Time) from KALO Reporting Station
Broken Clouds Broken Clouds  
Wind Chill:   Ceiling: 11000
Heat Index: 18°   Visibility: 10mi
Dew Point: 10°   Wind: 16mph
Humidity: 71%   Direction: 160°SSE
Pressure: 30.05"   Gusts: 21mph
Location:  42.787°N, 92.4284°W
Report Text: KALO 281254Z 16014G18KT 10SM BKN110 M08/M12 A3005 RMK AO2 SLP192 T10781122
Loading
Personal Weather Stations






























Interactive Weather Map New forecast layout! Learn more

10-Day Weather Forecast

Advertisements
Track Severe Weather on mobile